sensor_id;sensor_type;location;lat;lon;timestamp;temperature;humidity
18143;DHT22;9197;50.930;3.140;2023-11-19T00:01:39;13.90;99.90
18143;DHT22;9197;50.930;3.140;2023-11-19T00:04:06;13.90;99.90
18143;DHT22;9197;50.930;3.140;2023-11-19T00:06:33;13.90;99.90
18143;DHT22;9197;50.930;3.140;2023-11-19T00:09:00;13.90;99.90
18143;DHT22;9197;50.930;3.140;2023-11-19T00:11:29;13.80;99.90
18143;DHT22;9197;50.930;3.140;2023-11-19T00:13:58;13.80;99.90
18143;DHT22;9197;50.930;3.140;2023-11-19T00:16:25;13.80;99.90
18143;DHT22;9197;50.930;3.140;2023-11-19T00:18:52;13.80;99.90
18143;DHT22;9197;50.930;3.140;2023-11-19T00:21:19;13.80;99.90
18143;DHT22;9197;50.930;3.140;2023-11-19T00:23:47;13.80;99.90
18143;DHT22;9197;50.930;3.140;2023-11-19T00:26:14;13.70;99.90
18143;DHT22;9197;50.930;3.140;2023-11-19T00:28:41;13.70;99.90
18143;DHT22;9197;50.930;3.140;2023-11-19T00:31:10;13.60;99.90
18143;DHT22;9197;50.930;3.140;2023-11-19T00:33:38;13.60;99.90
18143;DHT22;9197;50.930;3.140;2023-11-19T00:36:06;13.50;99.90
18143;DHT22;9197;50.930;3.140;2023-11-19T00:38:33;13.50;99.90
18143;DHT22;9197;50.930;3.140;2023-11-19T00:41:00;13.40;99.90
18143;DHT22;9197;50.930;3.140;2023-11-19T00:43:28;13.30;99.90
18143;DHT22;9197;50.930;3.140;2023-11-19T00:45:55;13.30;99.90
18143;DHT22;9197;50.930;3.140;2023-11-19T00:48:23;13.20;99.90
18143;DHT22;9197;50.930;3.140;2023-11-19T00:50:50;13.20;99.90
18143;DHT22;9197;50.930;3.140;2023-11-19T00:53:17;13.10;99.90
18143;DHT22;9197;50.930;3.140;2023-11-19T00:55:45;13.10;99.90
18143;DHT22;9197;50.930;3.140;2023-11-19T00:58:12;13.00;99.90
18143;DHT22;9197;50.930;3.140;2023-11-19T01:00:39;12.90;99.90
18143;DHT22;9197;50.930;3.140;2023-11-19T01:03:06;13.00;99.90
18143;DHT22;9197;50.930;3.140;2023-11-19T01:05:35;13.00;99.90
18143;DHT22;9197;50.930;3.140;2023-11-19T01:08:02;13.00;99.90
18143;DHT22;9197;50.930;3.140;2023-11-19T01:10:30;13.00;99.90
18143;DHT22;9197;50.930;3.140;2023-11-19T01:12:58;12.90;99.90
18143;DHT22;9197;50.930;3.140;2023-11-19T01:15:25;12.90;99.90
18143;DHT22;9197;50.930;3.140;2023-11-19T01:17:52;12.80;99.90
18143;DHT22;9197;50.930;3.140;2023-11-19T01:20:19;12.80;99.90
18143;DHT22;9197;50.930;3.140;2023-11-19T01:22:47;12.80;99.90
18143;DHT22;9197;50.930;3.140;2023-11-19T01:25:15;12.80;99.90
18143;DHT22;9197;50.930;3.140;2023-11-19T01:27:42;12.70;99.90
18143;DHT22;9197;50.930;3.140;2023-11-19T01:30:10;12.70;99.90
18143;DHT22;9197;50.930;3.140;2023-11-19T01:32:38;12.80;99.90
18143;DHT22;9197;50.930;3.140;2023-11-19T01:35:06;12.80;99.90
18143;DHT22;9197;50.930;3.140;2023-11-19T01:37:33;12.70;99.90
18143;DHT22;9197;50.930;3.140;2023-11-19T01:40:03;12.80;99.90
18143;DHT22;9197;50.930;3.140;2023-11-19T01:42:36;12.70;99.90
18143;DHT22;9197;50.930;3.140;2023-11-19T01:45:04;12.70;99.90
18143;DHT22;9197;50.930;3.140;2023-11-19T01:47:33;12.60;99.90
18143;DHT22;9197;50.930;3.140;2023-11-19T01:50:02;12.70;99.90
18143;DHT22;9197;50.930;3.140;2023-11-19T01:52:33;12.70;99.90
18143;DHT22;9197;50.930;3.140;2023-11-19T01:55:04;12.70;99.90
18143;DHT22;9197;50.930;3.140;2023-11-19T01:57:31;12.60;99.90
18143;DHT22;9197;50.930;3.140;2023-11-19T01:59:58;12.60;99.90
18143;DHT22;9197;50.930;3.140;2023-11-19T02:02:26;12.70;99.90
18143;DHT22;9197;50.930;3.140;2023-11-19T02:04:53;12.60;99.90
18143;DHT22;9197;50.930;3.140;2023-11-19T02:07:20;12.60;99.90
18143;DHT22;9197;50.930;3.140;2023-11-19T02:09:48;12.60;99.90
18143;DHT22;9197;50.930;3.140;2023-11-19T02:12:16;12.60;99.90
18143;DHT22;9197;50.930;3.140;2023-11-19T02:14:43;12.60;99.90
18143;DHT22;9197;50.930;3.140;2023-11-19T02:17:25;12.60;99.90
18143;DHT22;9197;50.930;3.140;2023-11-19T02:19:53;12.60;99.90
18143;DHT22;9197;50.930;3.140;2023-11-19T02:22:20;12.60;99.90
18143;DHT22;9197;50.930;3.140;2023-11-19T02:24:51;12.50;99.90
18143;DHT22;9197;50.930;3.140;2023-11-19T02:27:24;12.50;99.90
18143;DHT22;9197;50.930;3.140;2023-11-19T02:29:54;12.60;99.90
18143;DHT22;9197;50.930;3.140;2023-11-19T02:32:21;12.50;99.90
18143;DHT22;9197;50.930;3.140;2023-11-19T02:34:48;12.60;99.90
18143;DHT22;9197;50.930;3.140;2023-11-19T02:37:16;12.50;99.90
18143;DHT22;9197;50.930;3.140;2023-11-19T02:39:44;12.50;99.90
18143;DHT22;9197;50.930;3.140;2023-11-19T02:42:11;12.40;99.90
18143;DHT22;9197;50.930;3.140;2023-11-19T02:44:39;12.40;99.90
18143;DHT22;9197;50.930;3.140;2023-11-19T02:47:07;12.40;99.90
18143;DHT22;9197;50.930;3.140;2023-11-19T02:49:34;12.40;99.90
18143;DHT22;9197;50.930;3.140;2023-11-19T02:52:03;12.30;99.90
18143;DHT22;9197;50.930;3.140;2023-11-19T02:54:31;12.30;99.90
18143;DHT22;9197;50.930;3.140;2023-11-19T02:57:00;12.30;99.90
18143;DHT22;9197;50.930;3.140;2023-11-19T02:59:29;12.30;99.90
18143;DHT22;9197;50.930;3.140;2023-11-19T03:02:04;12.20;99.90
18143;DHT22;9197;50.930;3.140;2023-11-19T03:04:34;12.20;99.90
18143;DHT22;9197;50.930;3.140;2023-11-19T03:07:01;12.20;99.90
18143;DHT22;9197;50.930;3.140;2023-11-19T03:09:28;12.20;99.90
18143;DHT22;9197;50.930;3.140;2023-11-19T03:11:55;12.10;99.90
18143;DHT22;9197;50.930;3.140;2023-11-19T03:14:22;12.10;99.90
18143;DHT22;9197;50.930;3.140;2023-11-19T03:16:49;12.10;99.90
18143;DHT22;9197;50.930;3.140;2023-11-19T03:19:17;12.20;99.90
18143;DHT22;9197;50.930;3.140;2023-11-19T03:21:45;12.10;99.90
18143;DHT22;9197;50.930;3.140;2023-11-19T03:24:13;12.10;99.90
18143;DHT22;9197;50.930;3.140;2023-11-19T03:26:41;12.10;99.90
18143;DHT22;9197;50.930;3.140;2023-11-19T03:29:08;12.10;99.90
18143;DHT22;9197;50.930;3.140;2023-11-19T03:31:35;12.10;99.90
18143;DHT22;9197;50.930;3.140;2023-11-19T03:34:04;12.00;99.90
18143;DHT22;9197;50.930;3.140;2023-11-19T03:36:34;12.00;99.90
18143;DHT22;9197;50.930;3.140;2023-11-19T03:39:03;12.00;99.90
18143;DHT22;9197;50.930;3.140;2023-11-19T03:41:30;12.00;99.90
18143;DHT22;9197;50.930;3.140;2023-11-19T03:43:57;12.00;99.90
18143;DHT22;9197;50.930;3.140;2023-11-19T03:46:24;12.00;99.90
18143;DHT22;9197;50.930;3.140;2023-11-19T03:48:51;11.90;99.90
18143;DHT22;9197;50.930;3.140;2023-11-19T03:51:18;12.00;99.90
18143;DHT22;9197;50.930;3.140;2023-11-19T03:53:46;12.00;99.90
18143;DHT22;9197;50.930;3.140;2023-11-19T03:56:14;12.00;99.90
18143;DHT22;9197;50.930;3.140;2023-11-19T03:58:42;11.90;99.90
18143;DHT22;9197;50.930;3.140;2023-11-19T04:01:11;11.90;99.90
18143;DHT22;9197;50.930;3.140;2023-11-19T04:03:39;11.90;99.90
18143;DHT22;9197;50.930;3.140;2023-11-19T04:06:07;11.90;99.90
18143;DHT22;9197;50.930;3.140;2023-11-19T04:08:35;11.90;99.90
18143;DHT22;9197;50.930;3.140;2023-11-19T04:11:03;11.90;99.90
18143;DHT22;9197;50.930;3.140;2023-11-19T04:13:32;11.80;99.90
18143;DHT22;9197;50.930;3.140;2023-11-19T04:15:59;11.80;99.90
18143;DHT22;9197;50.930;3.140;2023-11-19T04:18:27;11.80;99.90
18143;DHT22;9197;50.930;3.140;2023-11-19T04:20:54;11.80;99.90
18143;DHT22;9197;50.930;3.140;2023-11-19T04:23:21;11.70;99.90
18143;DHT22;9197;50.930;3.140;2023-11-19T04:25:50;11.70;99.90
18143;DHT22;9197;50.930;3.140;2023-11-19T04:28:17;11.70;99.90
18143;DHT22;9197;50.930;3.140;2023-11-19T04:30:46;11.60;99.90
18143;DHT22;9197;50.930;3.140;2023-11-19T04:33:13;11.60;99.90
18143;DHT22;9197;50.930;3.140;2023-11-19T04:35:40;11.60;99.90
18143;DHT22;9197;50.930;3.140;2023-11-19T04:38:07;11.50;99.90
18143;DHT22;9197;50.930;3.140;2023-11-19T04:40:34;11.60;99.90
18143;DHT22;9197;50.930;3.140;2023-11-19T04:43:02;11.60;99.90
18143;DHT22;9197;50.930;3.140;2023-11-19T04:45:29;11.50;99.90
18143;DHT22;9197;50.930;3.140;2023-11-19T04:47:57;11.50;99.90
18143;DHT22;9197;50.930;3.140;2023-11-19T04:50:24;11.50;99.90
18143;DHT22;9197;50.930;3.140;2023-11-19T04:52:53;11.50;99.90
18143;DHT22;9197;50.930;3.140;2023-11-19T04:55:21;11.60;99.90
18143;DHT22;9197;50.930;3.140;2023-11-19T04:57:48;11.60;99.90
18143;DHT22;9197;50.930;3.140;2023-11-19T05:00:15;11.50;99.90
18143;DHT22;9197;50.930;3.140;2023-11-19T05:02:42;11.50;99.90
18143;DHT22;9197;50.930;3.140;2023-11-19T05:05:11;11.50;99.90
18143;DHT22;9197;50.930;3.140;2023-11-19T05:07:38;11.40;99.90
18143;DHT22;9197;50.930;3.140;2023-11-19T05:10:06;11.40;99.90
18143;DHT22;9197;50.930;3.140;2023-11-19T05:12:34;11.40;99.90
18143;DHT22;9197;50.930;3.140;2023-11-19T05:15:01;11.30;99.90
18143;DHT22;9197;50.930;3.140;2023-11-19T05:17:28;11.30;99.90
18143;DHT22;9197;50.930;3.140;2023-11-19T05:19:55;11.30;99.90
18143;DHT22;9197;50.930;3.140;2023-11-19T05:22:24;11.20;99.90
18143;DHT22;9197;50.930;3.140;2023-11-19T05:24:51;11.20;99.90
18143;DHT22;9197;50.930;3.140;2023-11-19T05:27:18;11.20;99.90
18143;DHT22;9197;50.930;3.140;2023-11-19T05:29:46;11.20;99.90
18143;DHT22;9197;50.930;3.140;2023-11-19T05:32:13;11.20;99.90
18143;DHT22;9197;50.930;3.140;2023-11-19T05:34:40;11.20;99.90
18143;DHT22;9197;50.930;3.140;2023-11-19T05:37:07;11.20;99.90
18143;DHT22;9197;50.930;3.140;2023-11-19T05:39:37;11.20;99.90
18143;DHT22;9197;50.930;3.140;2023-11-19T05:42:04;11.20;99.90
18143;DHT22;9197;50.930;3.140;2023-11-19T05:44:31;11.20;99.90
18143;DHT22;9197;50.930;3.140;2023-11-19T05:46:59;11.30;99.90
18143;DHT22;9197;50.930;3.140;2023-11-19T05:49:26;11.40;99.90
18143;DHT22;9197;50.930;3.140;2023-11-19T05:51:53;11.40;99.90
18143;DHT22;9197;50.930;3.140;2023-11-19T05:54:21;11.40;99.90
18143;DHT22;9197;50.930;3.140;2023-11-19T05:56:50;11.40;99.90
18143;DHT22;9197;50.930;3.140;2023-11-19T05:59:19;11.40;99.90
18143;DHT22;9197;50.930;3.140;2023-11-19T06:01:48;11.50;99.90
18143;DHT22;9197;50.930;3.140;2023-11-19T06:04:15;11.50;99.90
18143;DHT22;9197;50.930;3.140;2023-11-19T06:06:42;11.50;99.90
18143;DHT22;9197;50.930;3.140;2023-11-19T06:09:09;11.40;99.90
18143;DHT22;9197;50.930;3.140;2023-11-19T06:11:38;11.40;99.90
18143;DHT22;9197;50.930;3.140;2023-11-19T06:14:06;11.40;99.90
18143;DHT22;9197;50.930;3.140;2023-11-19T06:16:33;11.30;99.90
18143;DHT22;9197;50.930;3.140;2023-11-19T06:19:02;11.40;99.90
18143;DHT22;9197;50.930;3.140;2023-11-19T06:21:29;11.40;99.90
18143;DHT22;9197;50.930;3.140;2023-11-19T06:23:56;11.40;99.90
18143;DHT22;9197;50.930;3.140;2023-11-19T06:26:24;11.40;99.90
18143;DHT22;9197;50.930;3.140;2023-11-19T06:28:51;11.50;99.90
18143;DHT22;9197;50.930;3.140;2023-11-19T06:31:20;11.40;99.90
18143;DHT22;9197;50.930;3.140;2023-11-19T06:33:47;11.40;99.90
18143;DHT22;9197;50.930;3.140;2023-11-19T06:36:14;11.40;99.90
18143;DHT22;9197;50.930;3.140;2023-11-19T06:38:43;11.30;99.90
18143;DHT22;9197;50.930;3.140;2023-11-19T06:41:10;11.30;99.90
18143;DHT22;9197;50.930;3.140;2023-11-19T06:43:37;11.20;99.90
18143;DHT22;9197;50.930;3.140;2023-11-19T06:46:05;11.10;99.90
18143;DHT22;9197;50.930;3.140;2023-11-19T06:48:34;11.10;99.90
18143;DHT22;9197;50.930;3.140;2023-11-19T06:51:01;11.00;99.90
18143;DHT22;9197;50.930;3.140;2023-11-19T06:53:31;11.00;99.90
18143;DHT22;9197;50.930;3.140;2023-11-19T06:55:58;11.00;99.90
18143;DHT22;9197;50.930;3.140;2023-11-19T06:58:26;11.00;99.90
18143;DHT22;9197;50.930;3.140;2023-11-19T07:00:53;11.00;99.90
18143;DHT22;9197;50.930;3.140;2023-11-19T07:03:20;11.10;99.90
18143;DHT22;9197;50.930;3.140;2023-11-19T07:05:49;11.10;99.90
18143;DHT22;9197;50.930;3.140;2023-11-19T07:08:16;11.10;99.90
18143;DHT22;9197;50.930;3.140;2023-11-19T07:10:43;11.20;99.90
18143;DHT22;9197;50.930;3.140;2023-11-19T07:13:10;11.20;99.90
18143;DHT22;9197;50.930;3.140;2023-11-19T07:15:37;11.30;99.90
18143;DHT22;9197;50.930;3.140;2023-11-19T07:18:04;11.30;99.90
18143;DHT22;9197;50.930;3.140;2023-11-19T07:20:32;11.40;99.90
18143;DHT22;9197;50.930;3.140;2023-11-19T07:23:00;11.40;99.90
18143;DHT22;9197;50.930;3.140;2023-11-19T07:25:28;11.50;99.90
18143;DHT22;9197;50.930;3.140;2023-11-19T07:27:55;11.50;99.90
18143;DHT22;9197;50.930;3.140;2023-11-19T07:30:22;11.50;99.90
18143;DHT22;9197;50.930;3.140;2023-11-19T07:32:49;11.50;99.90
18143;DHT22;9197;50.930;3.140;2023-11-19T07:35:17;11.40;99.90
18143;DHT22;9197;50.930;3.140;2023-11-19T07:37:44;11.50;99.90
18143;DHT22;9197;50.930;3.140;2023-11-19T07:40:15;11.50;99.90
18143;DHT22;9197;50.930;3.140;2023-11-19T07:42:42;11.50;99.90
18143;DHT22;9197;50.930;3.140;2023-11-19T07:45:09;11.50;99.90
18143;DHT22;9197;50.930;3.140;2023-11-19T07:47:36;11.50;99.90
18143;DHT22;9197;50.930;3.140;2023-11-19T07:50:05;11.40;99.90
18143;DHT22;9197;50.930;3.140;2023-11-19T07:52:32;11.40;99.90
18143;DHT22;9197;50.930;3.140;2023-11-19T07:54:59;11.40;99.90
18143;DHT22;9197;50.930;3.140;2023-11-19T07:57:28;11.40;99.90
18143;DHT22;9197;50.930;3.140;2023-11-19T07:59:56;11.50;99.90
18143;DHT22;9197;50.930;3.140;2023-11-19T08:02:23;11.60;99.90
18143;DHT22;9197;50.930;3.140;2023-11-19T08:04:51;11.70;99.90
18143;DHT22;9197;50.930;3.140;2023-11-19T08:07:20;11.90;99.90
18143;DHT22;9197;50.930;3.140;2023-11-19T08:09:48;12.00;99.90
18143;DHT22;9197;50.930;3.140;2023-11-19T08:12:15;12.10;99.90
18143;DHT22;9197;50.930;3.140;2023-11-19T08:14:44;12.20;99.90
18143;DHT22;9197;50.930;3.140;2023-11-19T08:17:11;12.20;99.90
18143;DHT22;9197;50.930;3.140;2023-11-19T08:19:38;12.20;99.90
18143;DHT22;9197;50.930;3.140;2023-11-19T08:22:06;12.20;99.90
18143;DHT22;9197;50.930;3.140;2023-11-19T08:24:33;12.10;99.90
18143;DHT22;9197;50.930;3.140;2023-11-19T08:27:00;12.20;99.90
18143;DHT22;9197;50.930;3.140;2023-11-19T08:29:27;12.30;99.90
18143;DHT22;9197;50.930;3.140;2023-11-19T08:31:56;12.40;99.90
18143;DHT22;9197;50.930;3.140;2023-11-19T08:34:23;12.60;99.90
18143;DHT22;9197;50.930;3.140;2023-11-19T08:36:50;12.80;99.90
18143;DHT22;9197;50.930;3.140;2023-11-19T08:39:19;12.90;99.90
18143;DHT22;9197;50.930;3.140;2023-11-19T08:41:46;13.00;99.90
18143;DHT22;9197;50.930;3.140;2023-11-19T08:44:14;13.10;99.90
18143;DHT22;9197;50.930;3.140;2023-11-19T08:46:47;13.00;99.90
18143;DHT22;9197;50.930;3.140;2023-11-19T08:49:15;13.00;99.90
18143;DHT22;9197;50.930;3.140;2023-11-19T08:51:42;12.90;99.90
18143;DHT22;9197;50.930;3.140;2023-11-19T08:54:10;12.90;99.90
18143;DHT22;9197;50.930;3.140;2023-11-19T08:56:38;12.80;99.90
18143;DHT22;9197;50.930;3.140;2023-11-19T08:59:06;12.80;99.90
18143;DHT22;9197;50.930;3.140;2023-11-19T09:01:34;12.90;99.90
18143;DHT22;9197;50.930;3.140;2023-11-19T09:04:01;13.00;99.90
18143;DHT22;9197;50.930;3.140;2023-11-19T09:06:30;13.00;99.90
18143;DHT22;9197;50.930;3.140;2023-11-19T09:08:57;13.10;99.90
18143;DHT22;9197;50.930;3.140;2023-11-19T09:11:28;13.20;99.90
18143;DHT22;9197;50.930;3.140;2023-11-19T09:13:54;13.20;99.90
18143;DHT22;9197;50.930;3.140;2023-11-19T09:16:21;13.30;99.90
18143;DHT22;9197;50.930;3.140;2023-11-19T09:18:48;13.20;99.90
18143;DHT22;9197;50.930;3.140;2023-11-19T09:21:15;13.10;99.90
18143;DHT22;9197;50.930;3.140;2023-11-19T09:23:44;13.10;99.90
18143;DHT22;9197;50.930;3.140;2023-11-19T09:26:13;13.10;99.90
18143;DHT22;9197;50.930;3.140;2023-11-19T09:28:40;13.00;99.90
18143;DHT22;9197;50.930;3.140;2023-11-19T09:31:13;13.00;99.90
18143;DHT22;9197;50.930;3.140;2023-11-19T09:33:40;12.90;99.90
18143;DHT22;9197;50.930;3.140;2023-11-19T09:36:08;12.90;99.90
18143;DHT22;9197;50.930;3.140;2023-11-19T09:38:36;12.90;99.90
18143;DHT22;9197;50.930;3.140;2023-11-19T09:41:05;12.80;99.90
18143;DHT22;9197;50.930;3.140;2023-11-19T09:43:34;12.60;99.90
18143;DHT22;9197;50.930;3.140;2023-11-19T09:46:05;12.60;99.90
18143;DHT22;9197;50.930;3.140;2023-11-19T09:48:33;12.50;99.90
18143;DHT22;9197;50.930;3.140;2023-11-19T09:51:03;12.40;99.90
18143;DHT22;9197;50.930;3.140;2023-11-19T09:53:31;12.30;99.90
18143;DHT22;9197;50.930;3.140;2023-11-19T09:56:00;12.30;99.90
18143;DHT22;9197;50.930;3.140;2023-11-19T09:58:30;12.40;99.90
18143;DHT22;9197;50.930;3.140;2023-11-19T10:00:57;12.50;99.90
18143;DHT22;9197;50.930;3.140;2023-11-19T10:03:27;12.70;99.90
18143;DHT22;9197;50.930;3.140;2023-11-19T10:05:56;12.70;99.90
18143;DHT22;9197;50.930;3.140;2023-11-19T10:08:24;12.80;99.90
18143;DHT22;9197;50.930;3.140;2023-11-19T10:10:51;12.80;99.90
18143;DHT22;9197;50.930;3.140;2023-11-19T10:13:18;12.70;99.90
18143;DHT22;9197;50.930;3.140;2023-11-19T10:15:47;12.80;99.90
18143;DHT22;9197;50.930;3.140;2023-11-19T10:18:15;12.80;99.90
18143;DHT22;9197;50.930;3.140;2023-11-19T10:20:42;12.80;99.90
18143;DHT22;9197;50.930;3.140;2023-11-19T10:23:10;12.90;99.90
18143;DHT22;9197;50.930;3.140;2023-11-19T10:25:37;13.00;99.90
18143;DHT22;9197;50.930;3.140;2023-11-19T10:28:04;13.10;99.90
18143;DHT22;9197;50.930;3.140;2023-11-19T10:30:32;13.30;99.90
18143;DHT22;9197;50.930;3.140;2023-11-19T10:33:05;13.40;99.90
18143;DHT22;9197;50.930;3.140;2023-11-19T10:35:33;13.60;99.90
18143;DHT22;9197;50.930;3.140;2023-11-19T10:38:01;13.70;99.90
18143;DHT22;9197;50.930;3.140;2023-11-19T10:40:40;13.60;99.90
18143;DHT22;9197;50.930;3.140;2023-11-19T10:43:08;13.50;99.90
18143;DHT22;9197;50.930;3.140;2023-11-19T10:45:35;13.60;99.90
18143;DHT22;9197;50.930;3.140;2023-11-19T16:34:08;12.20;99.90
18143;DHT22;9197;50.930;3.140;2023-11-19T16:36:35;12.10;99.90
18143;DHT22;9197;50.930;3.140;2023-11-19T16:39:02;12.10;99.90
18143;DHT22;9197;50.930;3.140;2023-11-19T16:41:29;12.10;99.90
18143;DHT22;9197;50.930;3.140;2023-11-19T16:43:56;12.10;99.90
18143;DHT22;9197;50.930;3.140;2023-11-19T16:46:29;12.10;99.90
18143;DHT22;9197;50.930;3.140;2023-11-19T16:48:56;12.10;99.90
18143;DHT22;9197;50.930;3.140;2023-11-19T16:51:23;12.10;99.90
18143;DHT22;9197;50.930;3.140;2023-11-19T16:53:50;12.10;99.90
18143;DHT22;9197;50.930;3.140;2023-11-19T16:56:18;12.10;99.90
18143;DHT22;9197;50.930;3.140;2023-11-19T16:58:45;12.10;99.90
18143;DHT22;9197;50.930;3.140;2023-11-19T17:01:13;12.10;99.90
18143;DHT22;9197;50.930;3.140;2023-11-19T17:03:42;12.10;99.90
18143;DHT22;9197;50.930;3.140;2023-11-19T17:06:10;12.10;99.90
18143;DHT22;9197;50.930;3.140;2023-11-19T17:08:40;12.20;99.90
18143;DHT22;9197;50.930;3.140;2023-11-19T17:11:07;12.20;99.90
18143;DHT22;9197;50.930;3.140;2023-11-19T17:13:34;12.20;99.90
18143;DHT22;9197;50.930;3.140;2023-11-19T17:16:02;12.20;99.90
18143;DHT22;9197;50.930;3.140;2023-11-19T17:18:29;12.20;99.90
18143;DHT22;9197;50.930;3.140;2023-11-19T17:20:57;12.20;99.90
18143;DHT22;9197;50.930;3.140;2023-11-19T17:23:26;12.20;99.90
18143;DHT22;9197;50.930;3.140;2023-11-19T17:25:53;12.30;99.90
18143;DHT22;9197;50.930;3.140;2023-11-19T17:28:20;12.30;99.90
18143;DHT22;9197;50.930;3.140;2023-11-19T17:30:48;12.30;99.90
18143;DHT22;9197;50.930;3.140;2023-11-19T17:33:15;12.30;99.90
18143;DHT22;9197;50.930;3.140;2023-11-19T17:35:42;12.30;99.90
18143;DHT22;9197;50.930;3.140;2023-11-19T17:38:11;12.30;99.90
18143;DHT22;9197;50.930;3.140;2023-11-19T17:40:38;12.30;99.90
18143;DHT22;9197;50.930;3.140;2023-11-19T17:43:05;12.30;99.90
18143;DHT22;9197;50.930;3.140;2023-11-19T17:45:32;12.30;99.90
18143;DHT22;9197;50.930;3.140;2023-11-19T17:48:01;12.30;99.90
18143;DHT22;9197;50.930;3.140;2023-11-19T17:50:29;12.40;99.90
18143;DHT22;9197;50.930;3.140;2023-11-19T17:52:56;12.30;99.90
18143;DHT22;9197;50.930;3.140;2023-11-19T17:55:25;12.40;99.90
18143;DHT22;9197;50.930;3.140;2023-11-19T17:57:52;12.40;99.90
18143;DHT22;9197;50.930;3.140;2023-11-19T18:00:19;12.40;99.90
18143;DHT22;9197;50.930;3.140;2023-11-19T18:02:47;12.40;99.90
18143;DHT22;9197;50.930;3.140;2023-11-19T18:05:16;12.30;99.90
18143;DHT22;9197;50.930;3.140;2023-11-19T18:07:43;12.30;99.90
18143;DHT22;9197;50.930;3.140;2023-11-19T18:10:10;12.30;99.90
18143;DHT22;9197;50.930;3.140;2023-11-19T18:12:39;12.30;99.90
18143;DHT22;9197;50.930;3.140;2023-11-19T18:15:07;12.30;99.90
18143;DHT22;9197;50.930;3.140;2023-11-19T18:17:38;12.30;99.90
18143;DHT22;9197;50.930;3.140;2023-11-19T18:20:08;12.30;99.90
18143;DHT22;9197;50.930;3.140;2023-11-19T18:22:37;12.30;99.90
18143;DHT22;9197;50.930;3.140;2023-11-19T18:25:05;12.30;99.90
18143;DHT22;9197;50.930;3.140;2023-11-19T18:27:35;12.30;99.90
18143;DHT22;9197;50.930;3.140;2023-11-19T18:30:07;12.30;99.90
18143;DHT22;9197;50.930;3.140;2023-11-19T18:32:35;12.30;99.90
18143;DHT22;9197;50.930;3.140;2023-11-19T18:35:03;12.30;99.90
18143;DHT22;9197;50.930;3.140;2023-11-19T18:37:31;12.30;99.90
18143;DHT22;9197;50.930;3.140;2023-11-19T18:39:58;12.30;99.90
18143;DHT22;9197;50.930;3.140;2023-11-19T18:42:26;12.30;99.90
18143;DHT22;9197;50.930;3.140;2023-11-19T18:44:53;12.30;99.90
18143;DHT22;9197;50.930;3.140;2023-11-19T18:47:21;12.30;99.90
18143;DHT22;9197;50.930;3.140;2023-11-19T18:49:48;12.30;99.90
18143;DHT22;9197;50.930;3.140;2023-11-19T18:52:17;12.30;99.90
18143;DHT22;9197;50.930;3.140;2023-11-19T18:54:44;12.30;99.90
18143;DHT22;9197;50.930;3.140;2023-11-19T18:57:11;12.30;99.90
18143;DHT22;9197;50.930;3.140;2023-11-19T18:59:38;12.40;99.90
18143;DHT22;9197;50.930;3.140;2023-11-19T19:02:05;12.30;99.90
18143;DHT22;9197;50.930;3.140;2023-11-19T19:04:33;12.30;99.90
18143;DHT22;9197;50.930;3.140;2023-11-19T19:07:00;12.30;99.90
18143;DHT22;9197;50.930;3.140;2023-11-19T19:09:29;12.30;99.90
18143;DHT22;9197;50.930;3.140;2023-11-19T19:11:56;12.30;99.90
18143;DHT22;9197;50.930;3.140;2023-11-19T19:14:23;12.30;99.90
18143;DHT22;9197;50.930;3.140;2023-11-19T19:16:50;12.30;99.90
18143;DHT22;9197;50.930;3.140;2023-11-19T19:19:18;12.40;99.90
18143;DHT22;9197;50.930;3.140;2023-11-19T19:21:46;12.40;99.90
18143;DHT22;9197;50.930;3.140;2023-11-19T19:24:13;12.40;99.90
18143;DHT22;9197;50.930;3.140;2023-11-19T19:26:40;12.40;99.90
18143;DHT22;9197;50.930;3.140;2023-11-19T19:29:16;12.40;99.90
18143;DHT22;9197;50.930;3.140;2023-11-19T19:31:47;12.50;99.90
18143;DHT22;9197;50.930;3.140;2023-11-19T19:34:14;12.50;99.90
18143;DHT22;9197;50.930;3.140;2023-11-19T19:36:41;12.40;99.90
18143;DHT22;9197;50.930;3.140;2023-11-19T19:39:09;12.50;99.90
18143;DHT22;9197;50.930;3.140;2023-11-19T19:41:41;12.40;99.90
18143;DHT22;9197;50.930;3.140;2023-11-19T19:44:08;12.40;99.90
18143;DHT22;9197;50.930;3.140;2023-11-19T19:46:36;12.50;99.90
18143;DHT22;9197;50.930;3.140;2023-11-19T19:49:04;12.40;99.90
18143;DHT22;9197;50.930;3.140;2023-11-19T19:51:33;12.40;99.90
18143;DHT22;9197;50.930;3.140;2023-11-19T19:54:01;12.40;99.90
18143;DHT22;9197;50.930;3.140;2023-11-19T19:56:30;12.40;99.90
18143;DHT22;9197;50.930;3.140;2023-11-19T19:59:01;12.40;99.90
18143;DHT22;9197;50.930;3.140;2023-11-19T20:01:33;12.30;99.90
18143;DHT22;9197;50.930;3.140;2023-11-19T20:04:00;12.40;99.90
18143;DHT22;9197;50.930;3.140;2023-11-19T20:06:36;12.40;99.90
18143;DHT22;9197;50.930;3.140;2023-11-19T20:09:03;12.40;99.90
18143;DHT22;9197;50.930;3.140;2023-11-19T20:11:32;12.40;99.90
18143;DHT22;9197;50.930;3.140;2023-11-19T20:13:59;12.40;99.90
18143;DHT22;9197;50.930;3.140;2023-11-19T20:16:26;12.40;99.90
18143;DHT22;9197;50.930;3.140;2023-11-19T20:18:53;12.50;99.90
18143;DHT22;9197;50.930;3.140;2023-11-19T20:21:23;12.50;99.90
18143;DHT22;9197;50.930;3.140;2023-11-19T20:23:50;12.50;99.90
18143;DHT22;9197;50.930;3.140;2023-11-19T20:26:19;12.40;99.90
18143;DHT22;9197;50.930;3.140;2023-11-19T20:28:49;12.40;99.90
18143;DHT22;9197;50.930;3.140;2023-11-19T20:31:16;12.40;99.90
18143;DHT22;9197;50.930;3.140;2023-11-19T20:33:44;12.40;99.90
18143;DHT22;9197;50.930;3.140;2023-11-19T20:36:12;12.40;99.90
18143;DHT22;9197;50.930;3.140;2023-11-19T20:38:41;12.40;99.90
18143;DHT22;9197;50.930;3.140;2023-11-19T20:41:08;12.40;99.90
18143;DHT22;9197;50.930;3.140;2023-11-19T20:43:36;12.30;99.90
18143;DHT22;9197;50.930;3.140;2023-11-19T20:46:05;12.30;99.90
18143;DHT22;9197;50.930;3.140;2023-11-19T20:48:32;12.30;99.90
18143;DHT22;9197;50.930;3.140;2023-11-19T20:51:00;12.30;99.90
18143;DHT22;9197;50.930;3.140;2023-11-19T20:53:27;12.40;99.90
18143;DHT22;9197;50.930;3.140;2023-11-19T20:55:54;12.40;99.90
18143;DHT22;9197;50.930;3.140;2023-11-19T20:58:23;12.40;99.90
18143;DHT22;9197;50.930;3.140;2023-11-19T21:00:50;12.50;99.90
18143;DHT22;9197;50.930;3.140;2023-11-19T21:03:18;12.50;99.90
18143;DHT22;9197;50.930;3.140;2023-11-19T21:05:45;12.40;99.90
18143;DHT22;9197;50.930;3.140;2023-11-19T21:08:20;12.40;99.90
18143;DHT22;9197;50.930;3.140;2023-11-19T21:10:47;12.40;99.90
18143;DHT22;9197;50.930;3.140;2023-11-19T21:13:15;12.30;99.90
18143;DHT22;9197;50.930;3.140;2023-11-19T21:15:42;12.30;99.90
18143;DHT22;9197;50.930;3.140;2023-11-19T21:18:10;12.30;99.90
18143;DHT22;9197;50.930;3.140;2023-11-19T21:20:41;12.30;99.90
18143;DHT22;9197;50.930;3.140;2023-11-19T21:23:08;12.30;99.90
18143;DHT22;9197;50.930;3.140;2023-11-19T21:25:35;12.40;99.90
18143;DHT22;9197;50.930;3.140;2023-11-19T21:28:03;12.40;99.90
18143;DHT22;9197;50.930;3.140;2023-11-19T21:30:30;12.40;99.90
18143;DHT22;9197;50.930;3.140;2023-11-19T21:32:57;12.50;99.90
18143;DHT22;9197;50.930;3.140;2023-11-19T21:35:24;12.40;99.90